createdAt,value
2023-12-03T00:00:12.106Z,10.23
2023-12-03T00:02:39.372Z,9.15
2023-12-03T00:05:08.046Z,12.70
2023-12-03T00:07:35.655Z,10.10
2023-12-03T00:10:02.846Z,10.50
2023-12-03T00:12:29.932Z,9.10
2023-12-03T00:14:56.811Z,8.93
2023-12-03T00:17:23.633Z,11.75
2023-12-03T00:19:50.485Z,12.40
2023-12-03T00:22:17.396Z,11.23
2023-12-03T00:24:44.401Z,12.43
2023-12-03T00:27:11.349Z,12.18
2023-12-03T00:29:38.249Z,12.18
2023-12-03T00:32:05.480Z,15.30
2023-12-03T00:34:32.402Z,12.47
2023-12-03T00:36:59.335Z,12.85
2023-12-03T00:39:26.276Z,13.23
2023-12-03T00:41:53.216Z,13.77
2023-12-03T00:44:20.052Z,17.05
2023-12-03T00:46:46.947Z,13.03
2023-12-03T00:49:14.986Z,14.85
2023-12-03T00:51:41.928Z,13.70
2023-12-03T00:54:08.960Z,15.75
2023-12-03T00:56:35.919Z,14.10
2023-12-03T00:59:02.733Z,15.90
2023-12-03T01:01:29.641Z,16.95
2023-12-03T01:03:56.514Z,14.73
2023-12-03T01:06:23.406Z,14.25
2023-12-03T01:08:50.834Z,12.65
2023-12-03T01:11:34.439Z,13.60
2023-12-03T01:14:03.715Z,11.88
2023-12-03T01:16:30.599Z,10.32
2023-12-03T01:18:57.970Z,16.10
2023-12-03T01:21:25.092Z,16.95
2023-12-03T01:23:52.088Z,16.13
2023-12-03T01:26:18.925Z,16.20
2023-12-03T01:28:45.734Z,12.82
2023-12-03T01:31:12.607Z,9.10
2023-12-03T01:33:39.664Z,7.28
2023-12-03T01:36:07.195Z,5.83
2023-12-03T01:38:34.218Z,5.90
2023-12-03T01:41:01.126Z,5.40
2023-12-03T01:43:28.027Z,6.43
2023-12-03T01:45:55.432Z,9.57
2023-12-03T01:48:22.477Z,8.20
2023-12-03T01:50:50.071Z,8.30
2023-12-03T01:53:19.547Z,7.13
2023-12-03T01:55:46.523Z,8.20
2023-12-03T01:58:13.669Z,6.50
2023-12-03T02:00:40.742Z,5.20
2023-12-03T02:03:07.723Z,8.60
2023-12-03T02:05:34.659Z,10.30
2023-12-03T02:08:01.680Z,11.68
2023-12-03T02:10:28.675Z,8.75
2023-12-03T02:12:56.781Z,10.57
2023-12-03T02:15:23.725Z,11.07
2023-12-03T02:17:51.852Z,9.45
2023-12-03T02:20:18.690Z,10.32
2023-12-03T02:23:03.820Z,8.88
2023-12-03T02:25:30.794Z,8.40
2023-12-03T02:27:57.626Z,8.13
2023-12-03T02:30:24.633Z,9.63
2023-12-03T02:32:51.596Z,10.77
2023-12-03T02:35:18.547Z,9.10
2023-12-03T02:37:45.466Z,8.90
2023-12-03T02:40:12.330Z,10.95
2023-12-03T02:42:39.393Z,9.73
2023-12-03T02:45:07.003Z,8.65
2023-12-03T02:47:34.072Z,7.70
2023-12-03T02:50:01.907Z,8.83
2023-12-03T02:52:28.830Z,10.43
2023-12-03T02:54:55.736Z,11.38
2023-12-03T02:57:22.812Z,11.38
2023-12-03T02:59:49.777Z,9.38
2023-12-03T03:02:16.663Z,9.07
2023-12-03T03:04:43.550Z,8.93
2023-12-03T03:07:10.537Z,8.90
2023-12-03T03:09:37.409Z,9.85
2023-12-03T03:12:04.457Z,10.65
2023-12-03T03:14:31.412Z,10.20
2023-12-03T03:16:58.356Z,8.98
2023-12-03T03:19:25.951Z,8.32
2023-12-03T03:21:52.932Z,10.18
2023-12-03T03:24:19.806Z,10.25
2023-12-03T03:26:46.612Z,8.00
2023-12-03T03:29:13.501Z,8.10
2023-12-03T03:31:40.525Z,8.50
2023-12-03T03:34:09.115Z,9.27
2023-12-03T03:36:36.146Z,9.20
2023-12-03T03:39:03.238Z,8.07
2023-12-03T03:41:30.084Z,7.57
2023-12-03T03:43:57.050Z,7.53
2023-12-03T03:46:23.846Z,9.20
2023-12-03T03:48:50.648Z,9.38
2023-12-03T03:51:17.540Z,11.37
2023-12-03T03:53:44.432Z,13.38
2023-12-03T03:56:12.196Z,11.05
2023-12-03T03:58:39.435Z,8.57
2023-12-03T04:01:08.367Z,7.93
2023-12-03T04:03:35.768Z,9.03
2023-12-03T04:06:04.991Z,8.63
2023-12-03T04:08:32.073Z,8.75
2023-12-03T04:11:02.293Z,9.90
2023-12-03T04:13:29.176Z,9.10
2023-12-03T04:15:56.120Z,7.97
2023-12-03T04:18:23.022Z,7.57
2023-12-03T04:20:50.024Z,7.53
2023-12-03T04:23:17.038Z,6.20
2023-12-03T04:25:43.909Z,7.72
2023-12-03T04:28:10.885Z,8.87
2023-12-03T04:30:37.794Z,11.13
2023-12-03T04:33:04.682Z,11.70
2023-12-03T04:35:31.682Z,11.10
2023-12-03T04:37:58.497Z,9.88
2023-12-03T04:40:25.354Z,9.67
2023-12-03T04:42:52.519Z,10.35
2023-12-03T04:45:19.518Z,8.70
2023-12-03T04:47:46.597Z,8.93
2023-12-03T04:50:13.640Z,10.80
2023-12-03T04:52:40.521Z,10.20
2023-12-03T04:55:07.761Z,10.07
2023-12-03T04:57:34.941Z,10.95
2023-12-03T05:00:01.942Z,10.35
2023-12-03T05:02:28.776Z,11.55
2023-12-03T05:04:55.737Z,10.57
2023-12-03T05:07:22.660Z,9.90
2023-12-03T05:09:49.625Z,10.15
2023-12-03T05:12:16.572Z,11.00
2023-12-03T05:14:43.394Z,11.07
2023-12-03T05:17:10.232Z,10.83
2023-12-03T05:19:37.214Z,10.05
2023-12-03T05:22:04.370Z,10.38
2023-12-03T05:24:31.456Z,10.88
2023-12-03T05:26:58.455Z,10.98
2023-12-03T05:29:25.276Z,9.83
2023-12-03T05:31:52.119Z,10.45
2023-12-03T05:34:19.039Z,11.23
2023-12-03T05:36:46.015Z,11.52
2023-12-03T05:39:12.901Z,10.40
2023-12-03T05:41:40.437Z,9.03
2023-12-03T05:44:07.482Z,9.63
2023-12-03T05:46:34.387Z,9.88
2023-12-03T05:49:01.569Z,10.05
2023-12-03T05:51:28.502Z,9.60
2023-12-03T05:53:55.382Z,11.50
2023-12-03T05:56:22.271Z,9.70
2023-12-03T05:58:49.051Z,9.90
2023-12-03T06:01:25.809Z,9.70
2023-12-03T06:03:53.106Z,9.20
2023-12-03T06:06:20.392Z,8.37
2023-12-03T06:08:49.734Z,7.78
2023-12-03T06:11:16.750Z,12.65
2023-12-03T06:13:43.603Z,12.82
2023-12-03T06:16:14.070Z,12.13
2023-12-03T06:18:40.990Z,10.43
2023-12-03T06:21:08.984Z,10.77
2023-12-03T06:23:36.779Z,9.65
2023-12-03T06:26:03.694Z,8.82
2023-12-03T06:28:30.596Z,8.07
2023-12-03T06:30:57.476Z,7.40
2023-12-03T06:33:24.926Z,6.40
2023-12-03T06:35:52.623Z,6.65
2023-12-03T06:38:19.574Z,8.57
2023-12-03T06:40:46.623Z,18.48
2023-12-03T06:43:13.589Z,15.47
2023-12-03T06:45:40.685Z,19.13
2023-12-03T06:48:11.140Z,21.80
2023-12-03T06:50:38.073Z,21.30
2023-12-03T09:48:33.036Z,15.30
2023-12-03T09:51:03.583Z,18.10
2023-12-03T09:53:33.107Z,17.70
2023-12-03T09:56:00.500Z,16.52
2023-12-03T09:58:27.359Z,15.73
2023-12-03T10:00:55.648Z,14.75
2023-12-03T10:03:22.577Z,18.17
2023-12-03T10:05:49.585Z,15.50
2023-12-03T10:08:16.524Z,6.60
2023-12-03T10:10:47.774Z,6.32
2023-12-03T10:13:15.207Z,6.40
2023-12-03T10:15:42.157Z,4.80
2023-12-03T10:18:09.031Z,5.57
2023-12-03T10:20:36.161Z,6.25
2023-12-03T10:23:04.360Z,6.72
2023-12-03T10:25:35.987Z,6.60
2023-12-03T10:28:04.954Z,6.83
2023-12-03T10:31:07.652Z,6.88
2023-12-03T10:33:34.679Z,6.32
2023-12-03T10:36:02.764Z,5.07
2023-12-03T10:38:39.788Z,4.57
2023-12-03T10:41:08.203Z,4.37
2023-12-03T10:43:42.802Z,3.85
2023-12-03T10:54:00.366Z,3.63
2023-12-03T10:56:27.439Z,2.72
2023-12-03T10:58:57.257Z,3.50
2023-12-03T11:01:25.349Z,3.93
2023-12-03T11:04:03.273Z,3.33
2023-12-03T11:06:30.946Z,3.72
2023-12-03T11:08:59.216Z,3.90
2023-12-03T11:11:27.026Z,3.45
2023-12-03T11:13:57.917Z,3.80
2023-12-03T11:16:28.563Z,3.97
2023-12-03T11:19:03.149Z,3.78
2023-12-03T11:21:43.253Z,3.75
2023-12-03T11:24:46.752Z,3.92
2023-12-03T11:27:13.558Z,4.00
2023-12-03T11:29:51.087Z,4.53
2023-12-03T11:32:20.343Z,4.18
2023-12-03T11:35:16.853Z,4.10
2023-12-03T11:37:44.542Z,4.10
2023-12-03T11:40:14.913Z,3.90
2023-12-03T11:42:46.353Z,5.60
2023-12-03T11:45:19.319Z,5.00
2023-12-03T11:48:04.412Z,9.30
2023-12-03T11:50:32.541Z,18.20
2023-12-03T11:52:59.606Z,27.13
2023-12-03T11:55:27.909Z,19.02
2023-12-03T11:57:55.803Z,8.68
2023-12-03T12:00:22.776Z,10.43
2023-12-03T12:02:49.908Z,14.98
2023-12-03T12:05:16.847Z,6.80
2023-12-03T12:07:43.994Z,6.50
2023-12-03T12:10:11.288Z,9.18
2023-12-03T12:12:40.971Z,7.90
2023-12-03T12:15:08.288Z,6.75
2023-12-03T12:17:35.497Z,8.00
2023-12-03T12:20:12.442Z,6.22
2023-12-03T12:22:43.199Z,5.30
2023-12-03T12:25:12.803Z,6.63
2023-12-03T12:27:42.528Z,7.00
2023-12-03T12:30:21.907Z,10.90
2023-12-03T12:32:58.339Z,8.23
2023-12-03T12:35:27.131Z,8.10
2023-12-03T12:38:05.308Z,6.95
2023-12-03T12:40:34.619Z,5.55
2023-12-03T12:43:11.938Z,6.10
2023-12-03T13:42:40.746Z,6.10
2023-12-03T13:45:07.954Z,6.15
2023-12-03T13:47:35.553Z,5.85
2023-12-03T13:50:02.835Z,6.05
2023-12-03T13:52:33.287Z,6.38
2023-12-03T13:55:01.002Z,6.40
2023-12-03T13:57:28.883Z,6.15
2023-12-03T13:59:56.043Z,6.40
2023-12-03T14:02:32.231Z,7.30
2023-12-03T14:33:43.325Z,9.80
2023-12-03T14:36:10.858Z,8.88
2023-12-03T14:38:37.675Z,9.30
2023-12-03T14:41:07.853Z,8.50
2023-12-03T14:43:34.700Z,10.10
2023-12-03T14:46:01.564Z,8.50
2023-12-03T14:48:28.507Z,9.40
2023-12-03T14:50:55.410Z,8.15
2023-12-03T14:53:22.239Z,7.78
2023-12-03T14:55:49.149Z,8.23
2023-12-03T14:58:16.152Z,7.90
2023-12-03T15:00:44.895Z,8.23
2023-12-03T15:03:11.805Z,8.95
2023-12-03T15:05:40.102Z,6.95
2023-12-03T15:08:06.891Z,7.97
2023-12-03T15:10:33.741Z,7.00
2023-12-03T15:13:00.800Z,7.45
2023-12-03T15:15:27.672Z,7.30
2023-12-03T15:17:54.670Z,6.80
2023-12-03T15:20:21.549Z,7.28
2023-12-03T15:22:48.429Z,7.97
2023-12-03T15:25:15.732Z,6.90
2023-12-03T15:27:42.640Z,7.25
2023-12-03T15:30:10.254Z,8.88
2023-12-03T15:32:37.220Z,11.55
2023-12-03T15:35:04.335Z,10.13
2023-12-03T15:37:31.210Z,10.40
2023-12-03T15:39:59.107Z,10.95
2023-12-03T15:42:28.640Z,9.68
2023-12-03T15:44:56.618Z,9.68
2023-12-03T15:47:23.706Z,8.77
2023-12-03T15:49:50.740Z,8.13
2023-12-03T15:52:17.701Z,8.20
2023-12-03T15:54:44.718Z,9.48
2023-12-03T15:57:14.597Z,8.52
2023-12-03T15:59:41.848Z,9.23
2023-12-03T16:02:08.956Z,9.63
2023-12-03T16:04:35.914Z,9.88
2023-12-03T16:07:03.130Z,10.10
2023-12-03T16:09:30.122Z,9.48
2023-12-03T16:11:57.749Z,9.17
2023-12-03T16:14:24.638Z,10.02
2023-12-03T16:16:53.414Z,9.98
2023-12-03T16:19:21.412Z,9.57
2023-12-03T16:21:48.332Z,9.38
2023-12-03T16:24:15.552Z,9.50
2023-12-03T16:26:44.846Z,10.15
2023-12-03T16:29:11.725Z,9.75
2023-12-03T16:31:38.607Z,8.88
2023-12-03T16:34:05.800Z,7.93
2023-12-03T16:36:32.771Z,8.23
2023-12-03T16:39:00.018Z,8.98
2023-12-03T16:41:27.057Z,8.95
2023-12-03T16:43:54.028Z,8.77
2023-12-03T16:46:20.911Z,8.18
2023-12-03T16:48:47.910Z,10.60
2023-12-03T16:51:14.804Z,10.43
2023-12-03T16:53:42.141Z,10.63
2023-12-03T16:56:09.221Z,9.13
2023-12-03T16:58:38.298Z,8.23
2023-12-03T17:01:08.749Z,8.70
2023-12-03T17:03:35.682Z,8.52
2023-12-03T17:06:02.692Z,9.90
2023-12-03T17:08:29.743Z,10.60
2023-12-03T17:10:57.769Z,9.32
2023-12-03T17:13:25.133Z,9.67
2023-12-03T17:15:52.790Z,11.13
2023-12-03T17:18:19.929Z,11.70
2023-12-03T17:20:46.785Z,14.85
2023-12-03T17:23:13.702Z,15.60
2023-12-03T17:25:40.607Z,15.40
2023-12-03T17:28:07.567Z,15.30
2023-12-03T17:30:34.622Z,14.77
2023-12-03T17:33:01.658Z,14.43
2023-12-03T17:35:28.712Z,14.80
2023-12-03T17:37:56.217Z,12.77
2023-12-03T17:40:23.183Z,15.43
2023-12-03T17:42:50.109Z,16.65
2023-12-03T17:45:17.131Z,17.85
2023-12-03T17:47:44.035Z,17.00
2023-12-03T17:50:11.318Z,18.27
2023-12-03T17:52:38.608Z,16.27
2023-12-03T17:55:06.247Z,16.00
2023-12-03T17:57:33.114Z,14.25
2023-12-03T18:00:00.227Z,12.68
2023-12-03T18:02:27.132Z,12.73
2023-12-03T18:04:57.093Z,13.55
2023-12-03T18:07:24.851Z,12.70
2023-12-03T18:09:52.149Z,12.38
2023-12-03T18:12:19.107Z,14.05
2023-12-03T18:14:46.820Z,12.33
2023-12-03T18:17:14.288Z,12.93
2023-12-03T18:19:41.207Z,13.52
2023-12-03T18:22:08.273Z,13.80
2023-12-03T18:24:35.389Z,11.88
2023-12-03T18:27:02.247Z,10.50
2023-12-03T18:29:29.208Z,10.52
2023-12-03T18:31:56.389Z,11.20
2023-12-03T18:34:23.328Z,11.85
2023-12-03T18:36:50.527Z,10.93
2023-12-03T18:39:17.636Z,10.80
2023-12-03T18:41:44.638Z,11.60
2023-12-03T18:44:11.793Z,12.77
2023-12-03T18:46:38.644Z,11.80
2023-12-03T18:49:05.559Z,12.23
2023-12-03T18:51:33.370Z,11.13
2023-12-03T18:54:00.826Z,12.27
2023-12-03T18:56:27.699Z,12.65
2023-12-03T18:58:54.702Z,12.55
2023-12-03T19:01:21.620Z,12.75
2023-12-03T19:03:48.677Z,13.37
2023-12-03T19:06:15.700Z,13.93
2023-12-03T19:08:42.730Z,12.75
2023-12-03T19:11:09.753Z,12.65
2023-12-03T19:13:37.100Z,13.13
2023-12-03T19:16:04.353Z,13.77
2023-12-03T19:18:31.414Z,13.77
2023-12-03T19:20:58.658Z,14.20
2023-12-03T19:23:25.437Z,13.27
2023-12-03T19:25:52.444Z,14.90
2023-12-03T19:28:19.279Z,15.27
2023-12-03T19:30:46.122Z,16.73
2023-12-03T19:33:12.959Z,16.30
2023-12-03T19:35:39.841Z,15.32
2023-12-03T19:38:06.747Z,15.18
2023-12-03T19:40:33.578Z,15.93
2023-12-03T19:43:01.412Z,15.95
2023-12-03T19:45:28.365Z,15.65
2023-12-03T19:47:55.246Z,16.08
2023-12-03T19:50:22.302Z,16.40
2023-12-03T19:52:50.439Z,16.20
2023-12-03T19:55:17.316Z,13.55
2023-12-03T19:57:44.258Z,14.18
2023-12-03T20:00:14.530Z,14.60
2023-12-03T20:02:41.349Z,14.40
2023-12-03T20:05:09.549Z,12.67
2023-12-03T20:07:36.572Z,11.60
2023-12-03T20:10:03.793Z,10.68
2023-12-03T20:12:33.928Z,10.57
2023-12-03T20:15:00.793Z,9.25
2023-12-03T20:17:31.088Z,9.73
2023-12-03T20:19:58.273Z,9.65
2023-12-03T20:22:25.334Z,8.98
2023-12-03T20:24:52.384Z,8.82
2023-12-03T20:27:19.246Z,9.13
2023-12-03T20:29:46.218Z,9.17
2023-12-03T20:32:13.238Z,8.82
2023-12-03T20:34:40.176Z,10.40
2023-12-03T20:37:07.008Z,10.05
2023-12-03T20:39:34.296Z,9.45
2023-12-03T20:42:01.232Z,11.57
2023-12-03T20:44:28.215Z,10.98
2023-12-03T20:46:55.206Z,10.70
2023-12-03T20:49:22.793Z,10.20
2023-12-03T20:51:49.740Z,9.25
2023-12-03T20:54:16.744Z,10.03
2023-12-03T20:56:43.604Z,12.18
2023-12-03T20:59:10.412Z,12.35
2023-12-03T21:01:37.317Z,11.18
2023-12-03T21:04:04.728Z,11.68
2023-12-03T21:06:31.680Z,11.10
2023-12-03T21:08:59.669Z,10.57
2023-12-03T21:11:26.582Z,10.95
2023-12-03T21:13:53.506Z,11.88
2023-12-03T21:16:20.375Z,13.85
2023-12-03T21:18:47.259Z,11.97
2023-12-03T21:21:14.203Z,13.65
2023-12-03T21:23:41.351Z,11.43
2023-12-03T21:26:08.450Z,16.30
2023-12-03T21:28:35.309Z,15.13
2023-12-03T21:31:02.531Z,17.07
2023-12-03T21:33:29.586Z,16.60
2023-12-03T21:35:57.038Z,14.48
2023-12-03T21:38:24.041Z,14.18
2023-12-03T21:40:50.986Z,15.02
2023-12-03T21:43:17.910Z,13.33
2023-12-03T21:45:44.921Z,12.35
2023-12-03T21:48:11.870Z,11.52
2023-12-03T21:50:38.786Z,11.73
2023-12-03T21:53:05.750Z,11.00
2023-12-03T21:55:32.652Z,10.17
2023-12-03T21:57:59.670Z,9.60
2023-12-03T22:00:26.569Z,11.55
2023-12-03T22:02:54.441Z,11.32
2023-12-03T22:05:21.332Z,12.88
2023-12-03T22:07:48.288Z,12.37
2023-12-03T22:10:15.183Z,11.02
2023-12-03T22:12:42.132Z,10.23
2023-12-03T22:15:09.562Z,10.60
2023-12-03T22:17:36.422Z,11.80
2023-12-03T22:20:03.564Z,13.07
2023-12-03T22:22:30.588Z,13.45
2023-12-03T22:24:57.826Z,12.52
2023-12-03T22:27:24.773Z,12.15
2023-12-03T22:29:57.055Z,12.07
2023-12-03T22:32:29.891Z,10.77
2023-12-03T22:34:58.187Z,10.23
2023-12-03T22:37:25.088Z,11.25
2023-12-03T22:39:52.026Z,9.48
2023-12-03T22:42:18.977Z,12.57
2023-12-03T22:44:45.868Z,11.13
2023-12-03T22:47:12.727Z,10.80
2023-12-03T22:49:39.637Z,10.45
2023-12-03T22:52:06.752Z,10.75
2023-12-03T22:54:33.644Z,9.88
2023-12-03T22:57:00.900Z,9.53
2023-12-03T22:59:27.753Z,10.65
2023-12-03T23:01:54.679Z,14.13
2023-12-03T23:04:21.638Z,10.63
2023-12-03T23:06:48.528Z,11.52
2023-12-03T23:09:15.369Z,11.90
2023-12-03T23:11:42.308Z,10.40
2023-12-03T23:14:09.147Z,9.75
2023-12-03T23:16:43.037Z,8.57
2023-12-03T23:19:10.770Z,8.88
2023-12-03T23:21:38.428Z,8.37
2023-12-03T23:24:07.530Z,9.32
2023-12-03T23:26:34.807Z,9.25
2023-12-03T23:29:02.121Z,9.45
2023-12-03T23:31:29.125Z,11.88
2023-12-03T23:33:56.062Z,14.87
2023-12-03T23:36:22.917Z,15.00
2023-12-03T23:38:49.873Z,15.38
2023-12-03T23:41:17.134Z,14.27
2023-12-03T23:43:44.114Z,15.82
2023-12-03T23:46:11.110Z,13.30
2023-12-03T23:48:39.354Z,10.70
2023-12-03T23:51:06.431Z,10.10
2023-12-03T23:53:33.509Z,9.60
2023-12-03T23:56:00.325Z,11.48
2023-12-03T23:58:27.134Z,10.00
